Time;durP1;ratioP1;P1;durP2;ratioP2;P2;SDS_P1;SDS_P2;PMS_P1;PMS_P2;Temp;Humidity;BMP_temperature;BMP_pressure;BME280_temperature;BME280_humidity;BME280_pressure;Samples;Min_cycle;Max_cycle;Signal;HPM_P1;HPM_P2
2022/09/21 00:00:24;;;;;;;2.95;2.70;;;;;;;8.59;90.80;96144.84;4981884;28;20034;-63
2022/09/21 00:02:50;;;;;;;3.33;2.58;;;;;;;8.57;91.34;96152.00;4990015;28;20033;-63
2022/09/21 00:05:16;;;;;;;2.45;2.25;;;;;;;8.59;90.75;96157.97;4989227;28;20026;-63
2022/09/21 00:07:42;;;;;;;4.25;2.65;;;;;;;8.54;90.85;96160.13;4985844;28;20031;-63
2022/09/21 00:10:08;;;;;;;3.30;2.20;;;;;;;8.74;89.77;96168.25;4983205;28;20026;-62
2022/09/21 00:12:35;;;;;;;2.47;2.20;;;;;;;8.64;89.79;96172.53;4984065;28;20026;-63
2022/09/21 00:15:01;;;;;;;15.73;2.35;;;;;;;8.53;90.12;96168.09;4988999;28;20025;-60
2022/09/21 00:17:27;;;;;;;2.97;2.67;;;;;;;8.40;92.24;96171.66;4987626;28;20105;-62
2022/09/21 00:19:53;;;;;;;3.58;2.47;;;;;;;8.32;92.66;96169.59;4983417;28;20023;-63
2022/09/21 00:22:18;;;;;;;4.32;3.30;;;;;;;8.28;92.41;96167.31;4955090;28;20035;-62
2022/09/21 00:24:44;;;;;;;3.30;3.00;;;;;;;8.20;93.83;96162.66;4972164;28;20043;-63
2022/09/21 00:27:09;;;;;;;4.30;2.63;;;;;;;8.15;93.98;96162.16;4983605;28;20050;-63
2022/09/21 00:29:34;;;;;;;3.38;2.50;;;;;;;8.09;95.01;96152.16;4979457;28;20024;-60
2022/09/21 00:32:00;;;;;;;2.97;2.67;;;;;;;8.06;95.85;96160.22;4987464;28;20057;-62
2022/09/21 00:34:26;;;;;;;3.28;2.42;;;;;;;8.07;94.94;96151.41;4984732;28;20027;-60
2022/09/21 00:36:51;;;;;;;2.60;2.38;;;;;;;8.10;94.75;96151.19;4985575;28;20023;-60
2022/09/21 00:39:17;;;;;;;5.50;2.47;;;;;;;8.13;94.40;96154.41;4981650;28;20073;-63
2022/09/21 00:41:42;;;;;;;3.05;2.72;;;;;;;8.16;93.96;96156.78;4988683;28;20084;-63
2022/09/21 00:44:17;;;;;;;4.18;2.75;;;;;;;8.19;93.20;96147.88;4984889;28;20037;-61
2022/09/21 00:46:44;;;;;;;2.60;2.40;;;;;;;8.20;92.95;96152.16;4988947;28;20040;-60
2022/09/21 00:49:10;;;;;;;3.10;2.40;;;;;;;8.26;92.47;96153.50;4980674;28;20069;-61
2022/09/21 00:51:36;;;;;;;2.30;2.10;;;;;;;8.21;92.69;96145.97;4987230;28;20034;-60
2022/09/21 00:54:08;;;;;;;5.88;1.95;;;;;;;8.15;92.72;96149.06;4986656;28;20018;-60
2022/09/21 00:56:36;;;;;;;4.47;2.20;;;;;;;8.11;92.94;96148.44;4981680;28;20565;-62
2022/09/21 00:59:02;;;;;;;4.25;2.08;;;;;;;8.01;94.44;96142.22;4986203;28;20029;-60
2022/09/21 01:01:28;;;;;;;2.75;2.35;;;;;;;7.93;94.40;96153.28;4958904;28;20541;-60
2022/09/21 01:03:56;;;;;;;2.53;2.30;;;;;;;7.88;95.43;96139.69;4985073;28;20030;-61
2022/09/21 01:06:22;;;;;;;2.35;2.15;;;;;;;7.84;96.88;96144.31;4985229;28;20046;-60
2022/09/21 01:08:52;;;;;;;3.13;2.38;;;;;;;7.81;95.98;96138.44;4976955;28;20029;-60
2022/09/21 01:11:38;;;;;;;6.00;2.50;;;;;;;7.79;96.20;96145.59;4985007;28;20032;-61
2022/09/21 01:14:17;;;;;;;3.60;2.50;;;;;;;7.78;95.77;96136.06;4978962;28;20612;-60
2022/09/21 01:17:02;;;;;;;4.95;2.50;;;;;;;7.79;95.60;96132.50;4984559;28;20068;-61
2022/09/21 01:19:42;;;;;;;3.30;2.88;;;;;;;7.76;96.28;96133.56;4982615;28;20033;-60
2022/09/21 01:22:26;;;;;;;3.63;2.80;;;;;;;7.70;96.62;96134.00;4983702;28;20502;-60
2022/09/21 01:25:05;;;;;;;4.05;2.80;;;;;;;7.63;97.18;96132.78;4983192;28;20485;-61
2022/09/21 01:27:52;;;;;;;2.50;2.30;;;;;;;7.58;96.64;96128.72;4986250;28;20025;-61
2022/09/21 01:30:20;;;;;;;5.90;2.58;;;;;;;7.63;96.15;96133.66;4968704;28;20647;-61
2022/09/21 01:32:54;;;;;;;5.38;2.50;;;;;;;7.65;96.22;96123.88;4985625;28;20026;-60
2022/09/21 01:35:28;;;;;;;2.78;2.40;;;;;;;7.65;96.27;96123.88;4985443;28;20050;-61
2022/09/21 01:38:01;;;;;;;2.92;2.20;;;;;;;7.62;96.41;96123.25;4984624;28;20026;-62
2022/09/21 01:40:35;;;;;;;5.63;2.53;;;;;;;7.53;96.33;96120.38;4983266;28;20027;-60
2022/09/21 01:43:03;;;;;;;2.90;2.33;;;;;;;7.52;96.47;96128.34;4980649;28;20100;-63
2022/09/21 01:45:33;;;;;;;2.42;2.00;;;;;;;7.52;96.71;96128.34;4983958;28;20031;-61
2022/09/21 01:48:00;;;;;;;2.75;2.22;;;;;;;7.48;97.13;96134.75;4982775;28;20394;-60
2022/09/21 01:50:31;;;;;;;3.08;2.20;;;;;;;7.41;97.74;96124.72;4981036;28;20092;-60
2022/09/21 01:53:20;;;;;;;4.25;2.33;;;;;;;7.36;98.25;96126.00;4985209;28;20100;-62
2022/09/21 01:55:51;;;;;;;2.40;2.30;;;;;;;7.36;98.21;96123.38;4986869;28;20061;-60
2022/09/21 01:58:35;;;;;;;3.15;2.50;;;;;;;7.35;99.33;96130.41;4975511;28;20076;-60
2022/09/21 02:01:04;;;;;;;5.50;2.47;;;;;;;7.34;97.64;96128.72;4984846;28;20033;-60
2022/09/21 02:03:37;;;;;;;4.00;2.33;;;;;;;7.35;98.41;96126.97;4980912;28;20034;-61
2022/09/21 02:06:05;;;;;;;2.85;2.65;;;;;;;7.35;97.62;96126.97;4980652;28;20057;-61
2022/09/21 02:08:31;;;;;;;3.25;2.92;;;;;;;7.31;97.40;96129.81;4985523;28;20030;-60
2022/09/21 02:10:59;;;;;;;8.10;3.85;;;;;;;7.31;97.61;96123.72;4980695;28;20026;-60
2022/09/21 02:13:34;;;;;;;7.43;3.67;;;;;;;7.26;99.18;96133.69;4989489;28;20038;-61
2022/09/21 02:16:06;;;;;;;3.90;2.73;;;;;;;7.20;100.00;96137.56;4985808;28;20030;-63
2022/09/21 02:18:46;;;;;;;3.03;2.70;;;;;;;7.17;99.55;96130.75;4989712;28;20072;-60
2022/09/21 02:21:40;;;;;;;5.13;2.58;;;;;;;7.19;99.68;96122.81;4968285;28;20041;-61
2022/09/21 02:24:14;;;;;;;4.78;2.58;;;;;;;7.23;99.44;96118.19;4987679;28;20042;-61
2022/09/21 02:26:48;;;;;;;5.20;2.65;;;;;;;7.26;98.20;96118.78;4989374;28;20033;-61
2022/09/21 02:29:24;;;;;;;3.63;2.80;;;;;;;7.26;98.34;96108.31;4984191;28;20486;-61
2022/09/21 02:32:09;;;;;;;4.65;3.15;;;;;;;7.27;98.39;96124.88;4987594;28;20034;-61
2022/09/21 02:34:46;;;;;;;5.60;2.78;;;;;;;7.25;99.43;96116.31;4982978;28;20030;-60
2022/09/21 02:37:23;;;;;;;3.28;2.78;;;;;;;7.24;98.31;96114.63;4990088;28;20030;-61
2022/09/21 02:39:51;;;;;;;3.10;2.50;;;;;;;7.21;98.36;96115.69;4988149;28;20434;-60
2022/09/21 02:42:23;;;;;;;2.78;2.50;;;;;;;7.20;98.32;96114.00;4981708;28;20026;-61
2022/09/21 02:45:02;;;;;;;2.72;2.53;;;;;;;7.13;99.16;96116.22;4983310;28;20121;-61
2022/09/21 02:47:38;;;;;;;2.80;2.60;;;;;;;7.15;98.51;96114.34;4989805;28;20041;-60
2022/09/21 02:50:28;;;;;;;3.17;2.60;;;;;;;7.13;99.58;96105.75;4985460;28;20049;-60
2022/09/21 02:52:54;;;;;;;6.78;2.90;;;;;;;7.12;99.06;96111.13;4987742;28;20093;-60
2022/09/21 02:55:20;;;;;;;2.50;2.30;;;;;;;7.10;98.62;96105.97;4988544;28;20042;-60
2022/09/21 02:57:47;;;;;;;2.53;2.33;;;;;;;7.10;99.23;96105.97;4985263;28;20085;-66
2022/09/21 03:00:15;;;;;;;2.70;2.50;;;;;;;7.08;99.13;96107.06;4981928;28;20550;-66
2022/09/21 03:02:43;;;;;;;4.93;2.42;;;;;;;7.01;99.03;96101.41;4988662;28;20026;-66
2022/09/21 03:05:10;;;;;;;3.50;2.40;;;;;;;6.92;100.00;96094.19;4986708;28;20050;-66
2022/09/21 03:07:36;;;;;;;3.22;2.20;;;;;;;6.93;99.98;96096.72;4984414;28;20038;-66
2022/09/21 03:10:02;;;;;;;4.28;2.30;;;;;;;6.98;99.01;96097.22;4982571;28;20030;-66
2022/09/21 03:12:28;;;;;;;3.10;2.20;;;;;;;6.96;99.23;96099.13;4982335;28;20092;-66
2022/09/21 03:14:54;;;;;;;2.92;2.30;;;;;;;6.92;99.37;96095.06;4988010;28;20026;-66
2022/09/21 03:17:20;;;;;;;2.65;2.40;;;;;;;6.89;100.00;96103.13;4988191;28;20469;-66
2022/09/21 03:19:45;;;;;;;2.85;2.40;;;;;;;6.87;100.00;96097.16;4990727;28;20113;-66
2022/09/21 03:22:11;;;;;;;2.38;2.17;;;;;;;6.87;99.94;96103.22;4990628;28;20030;-66
2022/09/21 03:24:45;;;;;;;3.28;2.63;;;;;;;6.81;100.00;96103.66;4990903;28;20046;-66
2022/09/21 03:27:11;;;;;;;4.03;2.50;;;;;;;6.74;100.00;96095.41;4990262;28;20037;-66
2022/09/21 03:29:36;;;;;;;6.70;3.10;;;;;;;6.77;100.00;96089.13;4990309;28;20166;-66
2022/09/21 03:32:02;;;;;;;6.03;2.35;;;;;;;6.81;100.00;96093.19;4990586;28;20022;-66
2022/09/21 03:34:27;;;;;;;3.00;2.60;;;;;;;6.79;100.00;96095.09;4990674;28;20049;-66
2022/09/21 03:36:53;;;;;;;4.93;2.55;;;;;;;6.74;100.00;96082.31;4989420;28;20028;-66
2022/09/21 03:39:18;;;;;;;2.67;2.47;;;;;;;6.76;100.00;96097.94;4989777;28;20026;-66
2022/09/21 03:41:44;;;;;;;3.25;2.42;;;;;;;6.69;100.00;96096.66;4991218;28;20141;-66
2022/09/21 03:44:09;;;;;;;3.28;2.60;;;;;;;6.63;100.00;96094.50;4993118;28;20514;-68
2022/09/21 03:46:34;;;;;;;3.17;2.17;;;;;;;6.61;100.00;96104.22;4983313;28;20026;-66
2022/09/21 03:49:01;;;;;;;2.45;2.28;;;;;;;6.65;100.00;96098.69;4989928;28;20101;-66
2022/09/21 03:51:29;;;;;;;3.92;2.50;;;;;;;6.66;100.00;96100.34;4972418;28;20030;-66
2022/09/21 03:53:55;;;;;;;2.80;2.28;;;;;;;6.62;100.00;96104.09;4990642;28;20101;-66
2022/09/21 03:56:20;;;;;;;8.77;3.08;;;;;;;6.57;100.00;96111.44;4990388;28;20106;-65
2022/09/21 03:58:46;;;;;;;11.30;2.75;;;;;;;6.53;100.00;96102.13;4989560;28;20029;-66
2022/09/21 04:01:11;;;;;;;4.22;3.30;;;;;;;6.54;100.00;96107.28;4985681;28;20513;-67
2022/09/21 04:03:37;;;;;;;3.67;2.97;;;;;;;6.53;100.00;96107.38;4990312;28;20594;-65
2022/09/21 04:06:11;;;;;;;2.97;2.67;;;;;;;6.47;100.00;96105.19;4990009;28;20093;-66
2022/09/21 04:08:38;;;;;;;4.75;2.42;;;;;;;6.44;100.00;96106.22;4989698;28;20077;-66
2022/09/21 04:11:16;;;;;;;9.57;3.22;;;;;;;6.40;100.00;96107.38;4989861;28;20104;-66
2022/09/21 04:13:42;;;;;;;3.22;2.50;;;;;;;6.40;100.00;96107.38;4989451;28;20031;-66
2022/09/21 04:16:09;;;;;;;5.25;2.50;;;;;;;6.40;100.00;96105.59;4990470;28;20041;-66
2022/09/21 04:18:36;;;;;;;4.93;2.92;;;;;;;6.44;100.00;96104.47;4989146;28;20037;-66
2022/09/21 04:21:01;;;;;;;4.45;2.40;;;;;;;6.50;100.00;96107.59;4990046;28;20073;-66
2022/09/21 04:23:26;;;;;;;3.05;2.75;;;;;;;6.50;100.00;96103.19;4989282;28;20438;-66
2022/09/21 04:25:53;;;;;;;3.47;2.60;;;;;;;6.49;100.00;96104.13;4982501;28;20027;-66
2022/09/21 04:28:18;;;;;;;2.63;2.40;;;;;;;6.45;100.00;96107.91;4984114;28;20521;-66
2022/09/21 04:30:44;;;;;;;2.63;2.42;;;;;;;6.43;100.00;96102.78;4989783;28;20027;-66
2022/09/21 04:33:09;;;;;;;2.78;2.58;;;;;;;6.42;100.00;96108.13;4989755;28;20455;-66
2022/09/21 04:35:34;;;;;;;4.72;2.80;;;;;;;6.36;100.00;96106.75;4989663;28;20026;-66
2022/09/21 04:38:00;;;;;;;3.95;2.50;;;;;;;6.33;100.00;96106.97;4989706;28;20034;-66
2022/09/21 04:40:27;;;;;;;4.40;2.70;;;;;;;6.34;100.00;96105.22;4989088;28;20030;-69
2022/09/21 04:42:53;;;;;;;7.45;3.28;;;;;;;6.32;100.00;96107.91;4988824;28;20034;-66
2022/09/21 04:45:22;;;;;;;5.75;3.28;;;;;;;6.34;100.00;96105.22;4985350;28;20035;-66
2022/09/21 04:47:48;;;;;;;6.05;3.35;;;;;;;6.32;100.00;96118.38;4989337;28;20023;-66
2022/09/21 04:50:14;;;;;;;3.90;2.53;;;;;;;6.30;100.00;96115.03;4989477;28;20088;-66
2022/09/21 04:52:39;;;;;;;3.65;3.10;;;;;;;6.29;100.00;96114.19;4989736;28;20058;-66
2022/09/21 04:55:06;;;;;;;3.88;2.60;;;;;;;6.27;100.00;96110.84;4989611;28;20073;-66
2022/09/21 04:57:31;;;;;;;2.78;2.67;;;;;;;6.28;100.00;96117.72;4989340;28;20022;-66
2022/09/21 04:59:57;;;;;;;2.90;2.67;;;;;;;6.27;100.00;96117.84;4988977;28;20085;-66
2022/09/21 05:02:23;;;;;;;2.80;2.50;;;;;;;6.21;100.00;96116.50;4989418;28;20038;-66
2022/09/21 05:04:48;;;;;;;3.88;2.88;;;;;;;6.14;100.00;96112.63;4985881;28;20029;-66
2022/09/21 05:07:14;;;;;;;4.15;2.75;;;;;;;6.15;100.00;96114.31;4989318;28;20537;-66
2022/09/21 05:12:23;;;;;;;2.72;2.63;;;;;;;6.09;100.00;96112.94;4989278;28;20084;-66
2022/09/21 05:14:49;;;;;;;3.28;2.35;;;;;;;6.08;100.00;96113.03;4988230;28;20018;-66
2022/09/21 05:17:15;;;;;;;6.13;2.83;;;;;;;6.10;100.00;96124.25;4989694;28;20494;-65
2022/09/21 05:19:40;;;;;;;2.85;2.58;;;;;;;6.09;100.00;96114.72;4989105;28;20053;-68
2022/09/21 05:22:05;;;;;;;4.95;2.47;;;;;;;6.10;100.00;96121.63;4989229;28;20050;-68
2022/09/21 05:24:31;;;;;;;2.75;2.55;;;;;;;6.09;100.00;96112.94;4990763;28;20033;-68
2022/09/21 05:26:56;;;;;;;5.20;3.00;;;;;;;6.04;100.00;96112.41;4990766;28;20064;-68
2022/09/21 05:29:22;;;;;;;2.92;2.63;;;;;;;6.06;100.00;96120.13;4983985;28;20022;-67
2022/09/21 05:31:53;;;;;;;2.90;2.53;;;;;;;6.11;100.00;96126.72;4986981;28;20063;-66
2022/09/21 05:34:34;;;;;;;7.63;2.90;;;;;;;6.10;100.00;96129.47;4987501;28;20026;-67
2022/09/21 05:37:02;;;;;;;5.13;2.95;;;;;;;6.09;100.00;96128.63;4990701;28;20057;-68
2022/09/21 05:39:28;;;;;;;5.53;3.03;;;;;;;6.06;100.00;96135.81;4988229;28;20440;-67
2022/09/21 05:41:54;;;;;;;3.25;2.90;;;;;;;6.05;100.00;96136.75;4990163;28;20057;-62
2022/09/21 05:44:20;;;;;;;7.13;3.28;;;;;;;6.08;100.00;96137.41;4987891;28;20066;-61
2022/09/21 05:47:22;;;;;;;4.13;2.70;;;;;;;6.09;100.00;96144.31;4987250;28;20026;-61
2022/09/21 05:49:50;;;;;;;3.38;2.85;;;;;;;6.08;100.00;96147.00;4991876;28;20537;-62
2022/09/21 05:52:24;;;;;;;4.20;2.70;;;;;;;6.03;100.00;96147.34;4992190;28;20053;-61
2022/09/21 05:54:55;;;;;;;3.63;2.95;;;;;;;6.05;100.00;96152.44;4989585;28;20411;-61
2022/09/21 05:57:36;;;;;;;3.10;2.90;;;;;;;6.04;100.00;96151.63;4992062;28;20093;-61
2022/09/21 06:00:04;;;;;;;4.30;3.08;;;;;;;6.01;100.00;96136.16;4992126;28;20390;-61
2022/09/21 06:02:56;;;;;;;3.72;3.42;;;;;;;6.00;100.00;96143.09;4990702;28;20375;-61
2022/09/21 06:05:22;;;;;;;6.90;3.65;;;;;;;6.02;100.00;96138.66;4990488;28;20074;-61
2022/09/21 06:07:47;;;;;;;5.13;3.05;;;;;;;6.08;100.00;96147.84;4991127;28;20111;-61
2022/09/21 06:10:14;;;;;;;6.18;2.80;;;;;;;6.14;100.00;96139.59;4982858;28;20054;-61
2022/09/21 06:12:40;;;;;;;4.60;3.00;;;;;;;6.18;100.00;96144.59;4988075;28;20022;-61
2022/09/21 06:15:09;;;;;;;4.80;3.22;;;;;;;6.19;100.00;96149.75;4992263;28;20027;-60
2022/09/21 06:17:34;;;;;;;6.68;2.90;;;;;;;6.18;100.00;96147.22;4987603;28;20062;-61
2022/09/21 06:20:01;;;;;;;5.13;2.92;;;;;;;6.20;100.00;96148.81;4984715;28;20101;-62
2022/09/21 06:22:27;;;;;;;3.05;2.53;;;;;;;6.26;100.00;96148.38;4990302;28;20031;-60
2022/09/21 06:24:52;;;;;;;3.22;2.88;;;;;;;6.26;100.00;96148.38;4989305;28;20038;-62
2022/09/21 06:27:17;;;;;;;3.15;2.85;;;;;;;6.25;100.00;96144.09;4986422;28;20027;-60
2022/09/21 06:29:43;;;;;;;3.50;3.08;;;;;;;6.27;100.00;96147.44;4970582;28;20129;-61
2022/09/21 06:32:08;;;;;;;6.88;3.03;;;;;;;6.29;100.00;96150.78;4986520;28;20116;-61
2022/09/21 06:34:33;;;;;;;5.30;4.80;;;;;;;6.29;100.00;96148.16;4988726;28;20490;-61
2022/09/21 06:36:59;;;;;;;5.13;4.35;;;;;;;6.31;100.00;96153.31;4986645;28;20074;-61
2022/09/21 06:39:24;;;;;;;4.70;3.80;;;;;;;6.34;100.00;96147.06;4989801;28;20486;-60
2022/09/21 06:41:51;;;;;;;5.63;3.85;;;;;;;6.37;100.00;96144.22;4989299;28;20026;-60
2022/09/21 06:44:16;;;;;;;4.18;3.47;;;;;;;6.38;100.00;96143.28;4985506;28;20038;-61
2022/09/21 06:46:41;;;;;;;3.80;3.50;;;;;;;6.48;100.00;96141.69;4988802;28;20030;-61
2022/09/21 06:49:07;;;;;;;7.28;3.55;;;;;;;6.54;100.00;96141.28;4988172;28;20125;-60
2022/09/21 06:51:32;;;;;;;4.65;3.60;;;;;;;6.57;100.00;96142.84;4987215;28;20026;-60
2022/09/21 06:53:57;;;;;;;7.10;3.40;;;;;;;6.58;100.00;96145.34;4988942;28;20401;-60
2022/09/21 06:56:24;;;;;;;4.18;3.33;;;;;;;6.65;100.00;96139.69;4991173;28;20425;-59
2022/09/21 06:58:51;;;;;;;3.33;3.03;;;;;;;6.69;100.00;96146.38;4989672;28;20037;-60
2022/09/21 07:01:17;;;;;;;3.10;2.80;;;;;;;6.70;100.00;96145.44;4989893;28;20038;-59
2022/09/21 07:03:43;;;;;;;5.25;3.20;;;;;;;6.73;100.00;96142.59;4989767;28;20489;-60
2022/09/21 07:06:10;;;;;;;4.40;3.35;;;;;;;6.77;100.00;96144.09;4989468;28;20050;-60
2022/09/21 07:08:36;;;;;;;3.40;3.10;;;;;;;6.81;100.00;96147.31;4988085;28;20044;-60
2022/09/21 07:11:02;;;;;;;5.97;3.45;;;;;;;6.95;100.00;96146.34;4988842;28;20023;-60
2022/09/21 07:13:28;;;;;;;6.32;3.58;;;;;;;7.27;100.00;96143.22;4985087;28;20035;-60
2022/09/21 07:15:54;;;;;;;7.82;3.03;;;;;;;7.66;100.00;96140.44;4990556;28;20058;-59
2022/09/21 07:18:20;;;;;;;3.33;3.03;;;;;;;7.93;98.52;96147.19;4989309;28;20045;-60
2022/09/21 07:20:47;;;;;;;3.17;2.78;;;;;;;8.18;96.33;96143.56;4991175;28;20033;-59
2022/09/21 07:23:15;;;;;;;4.20;2.95;;;;;;;8.38;95.84;96135.97;4991277;28;20034;-59
2022/09/21 07:25:45;;;;;;;3.35;2.97;;;;;;;8.58;94.52;96144.97;4990942;28;20026;-60
2022/09/21 07:28:12;;;;;;;5.93;4.05;;;;;;;8.75;94.46;96133.19;4990182;28;20030;-59
2022/09/21 07:30:40;;;;;;;9.60;4.50;;;;;;;8.93;96.88;96133.50;4990724;28;20125;-60
2022/09/21 07:33:06;;;;;;;3.15;2.80;;;;;;;9.14;94.73;96132.78;4990743;28;20514;-60
2022/09/21 07:35:32;;;;;;;2.72;2.53;;;;;;;9.35;93.15;96127.56;4989850;28;20030;-59
2022/09/21 07:37:59;;;;;;;5.72;2.60;;;;;;;9.50;91.72;96135.19;4983333;28;20029;-59
2022/09/21 07:40:25;;;;;;;7.97;3.17;;;;;;;9.55;89.99;96128.59;4990551;28;20038;-59
2022/09/21 07:42:51;;;;;;;3.50;2.63;;;;;;;9.65;88.60;96128.69;4990590;28;20390;-60
2022/09/21 07:45:17;;;;;;;2.97;2.70;;;;;;;9.79;86.19;96138.06;4991042;28;20022;-60
2022/09/21 07:47:42;;;;;;;5.43;2.33;;;;;;;9.79;85.42;96137.22;4989678;28;20113;-60
2022/09/21 07:50:08;;;;;;;2.50;2.30;;;;;;;10.04;85.03;96142.13;4990528;28;20109;-59
2022/09/21 07:52:34;;;;;;;3.05;2.40;;;;;;;10.19;84.26;96139.19;4990388;28;20033;-59
2022/09/21 07:54:59;;;;;;;2.50;2.00;;;;;;;10.28;81.82;96138.44;4990448;28;20502;-60
2022/09/21 08:00:10;;;;;;;2.87;2.40;;;;;;;10.41;81.07;96135.63;4990212;28;20529;-59
2022/09/21 08:02:36;;;;;;;4.18;2.28;;;;;;;10.56;80.52;96138.75;4972603;28;20022;-60
2022/09/21 08:05:01;;;;;;;3.95;2.53;;;;;;;10.55;80.38;96129.19;4990957;28;20030;-60
2022/09/21 08:07:27;;;;;;;3.08;2.17;;;;;;;10.56;79.83;96140.53;4989598;28;20034;-60
2022/09/21 08:09:52;;;;;;;2.70;2.25;;;;;;;10.71;79.68;96139.22;4984030;28;20506;-61
2022/09/21 08:12:19;;;;;;;8.73;2.40;;;;;;;10.70;78.62;96142.84;4986622;28;20098;-60
2022/09/21 08:14:46;;;;;;;3.58;2.55;;;;;;;10.70;78.58;96131.44;4990920;28;20033;-60
2022/09/21 08:17:12;;;;;;;5.80;2.55;;;;;;;10.71;79.22;96135.75;4989775;28;20027;-60
2022/09/21 08:19:38;;;;;;;5.00;2.40;;;;;;;10.92;79.54;96130.44;4987109;28;20033;-60
2022/09/21 08:22:03;;;;;;;6.82;2.33;;;;;;;11.04;77.87;96124.09;4988525;28;20055;-60
2022/09/21 08:24:30;;;;;;;7.88;2.10;;;;;;;11.20;76.68;96127.19;4989043;28;20062;-60
2022/09/21 08:26:56;;;;;;;2.00;1.90;;;;;;;11.31;75.76;96127.06;4988067;28;20097;-59
2022/09/21 08:29:23;;;;;;;2.92;2.22;;;;;;;11.26;74.70;96110.84;4982209;28;20014;-60
2022/09/21 08:31:48;;;;;;;2.33;2.00;;;;;;;11.11;75.31;96116.47;4987468;28;20536;-60
2022/09/21 08:34:15;;;;;;;4.53;2.63;;;;;;;11.06;75.70;96118.69;4989223;28;20101;-60
2022/09/21 08:36:40;;;;;;;3.33;2.35;;;;;;;11.10;75.72;96114.81;4988479;28;20073;-60
2022/09/21 08:39:07;;;;;;;2.78;2.42;;;;;;;11.10;74.80;96117.44;4988504;28;20026;-60
2022/09/21 08:42:06;;;;;;;4.68;2.60;;;;;;;11.08;75.11;96110.66;4984448;28;20026;-60
2022/09/21 08:44:47;;;;;;;3.03;2.35;;;;;;;11.13;74.06;96111.91;4985326;28;20121;-60
2022/09/21 08:47:31;;;;;;;3.85;3.45;;;;;;;11.13;74.81;96111.91;4985855;28;20031;-60
2022/09/21 08:50:00;;;;;;;7.10;2.67;;;;;;;11.22;75.41;96114.72;4980361;28;20058;-60
2022/09/21 08:52:26;;;;;;;3.50;2.28;;;;;;;11.32;74.79;96105.88;4986214;28;20018;-60
2022/09/21 08:55:00;;;;;;;5.65;2.75;;;;;;;11.46;76.09;96115.19;4988622;28;20057;-60
2022/09/21 08:57:29;;;;;;;4.30;2.63;;;;;;;11.69;74.54;96107.00;4985308;28;20080;-60
2022/09/21 08:59:54;;;;;;;2.47;2.28;;;;;;;11.83;73.66;96104.94;4990297;28;20077;-60
2022/09/21 09:02:54;;;;;;;5.68;2.50;;;;;;;11.79;72.05;96108.78;4992946;28;20034;-60
2022/09/21 09:05:48;;;;;;;3.08;2.63;;;;;;;11.80;72.81;96108.66;4987767;28;20030;-60
2022/09/21 09:08:38;;;;;;;2.53;2.33;;;;;;;11.85;71.64;96100.34;4993071;28;20049;-59
2022/09/21 09:11:22;;;;;;;2.55;2.35;;;;;;;12.01;71.67;96105.06;4988309;28;20034;-60
2022/09/21 09:14:22;;;;;;;3.72;2.58;;;;;;;12.03;72.42;96103.13;4986772;28;20089;-60
2022/09/21 09:17:16;;;;;;;6.75;2.30;;;;;;;12.48;71.03;96101.63;4971764;28;20109;-61
2022/09/21 09:19:47;;;;;;;3.35;2.53;;;;;;;12.58;69.63;96102.44;4991276;28;20022;-60
2022/09/21 09:22:20;;;;;;;2.30;2.10;;;;;;;12.66;68.27;96093.78;4972303;28;20402;-60
2022/09/21 09:24:48;;;;;;;2.40;2.20;;;;;;;12.70;68.28;96097.81;4991442;28;20385;-60
2022/09/21 09:27:21;;;;;;;5.13;2.60;;;;;;;12.92;67.71;96098.41;4987329;28;20046;-60
2022/09/21 09:29:52;;;;;;;4.13;2.80;;;;;;;13.07;66.89;96090.00;4988032;28;20085;-60
2022/09/21 09:32:22;;;;;;;7.18;2.40;;;;;;;13.10;66.56;96089.69;4992007;28;20054;-60
2022/09/21 09:35:38;;;;;;;2.22;2.03;;;;;;;12.90;68.10;96087.97;4988945;28;20113;-60
2022/09/21 09:38:28;;;;;;;3.28;2.10;;;;;;;13.24;66.55;96085.72;4944896;28;20069;-60
2022/09/21 09:41:21;;;;;;;2.17;1.98;;;;;;;13.29;65.83;96086.94;4989380;28;20034;-60
2022/09/21 09:44:19;;;;;;;2.60;2.30;;;;;;;13.24;64.70;96075.13;4984532;28;20512;-60
2022/09/21 09:47:11;;;;;;;4.50;2.30;;;;;;;13.33;65.61;96082.16;4980753;28;20034;-60
2022/09/21 09:50:01;;;;;;;4.57;2.28;;;;;;;13.27;65.17;96072.19;4989096;28;20034;-60
2022/09/21 09:52:27;;;;;;;3.90;2.30;;;;;;;13.29;66.22;96072.88;4990960;28;20053;-60
2022/09/21 09:54:53;;;;;;;2.40;2.20;;;;;;;13.37;66.14;96069.47;4991522;28;20038;-60
2022/09/21 09:57:27;;;;;;;5.93;2.30;;;;;;;13.53;65.97;96068.84;4992433;28;20038;-60
2022/09/21 09:59:58;;;;;;;2.90;2.60;;;;;;;13.56;65.14;96061.44;4992467;28;20026;-60
2022/09/21 10:02:25;;;;;;;3.40;2.28;;;;;;;13.46;65.70;96060.66;4992344;28;20087;-67
2022/09/21 10:05:07;;;;;;;2.35;2.10;;;;;;;13.47;65.76;96064.97;4992894;28;20444;-67
2022/09/21 10:07:33;;;;;;;2.67;2.05;;;;;;;13.81;64.76;96051.06;4991873;28;20066;-67
2022/09/21 10:09:58;;;;;;;2.08;1.88;;;;;;;13.94;64.74;96049.84;4990938;28;20070;-67
2022/09/21 10:12:26;;;;;;;2.78;2.33;;;;;;;13.89;65.03;96060.88;4990397;28;20034;-69
2022/09/21 10:14:53;;;;;;;2.40;2.05;;;;;;;13.91;65.99;96056.25;4987853;28;20526;-67
2022/09/21 10:17:20;;;;;;;2.70;2.50;;;;;;;14.12;65.22;96055.91;4989218;28;20453;-67
2022/09/21 10:19:46;;;;;;;2.17;2.00;;;;;;;14.17;63.94;96068.69;4992185;28;20644;-67
2022/09/21 10:22:18;;;;;;;3.97;2.00;;;;;;;14.27;62.16;96058.00;4992025;28;20026;-66
2022/09/21 10:24:53;;;;;;;3.63;2.08;;;;;;;14.28;61.72;96060.50;4992545;28;20039;-66
2022/09/21 10:27:27;;;;;;;3.35;2.15;;;;;;;14.43;61.30;96059.91;4985843;28;20096;-67
2022/09/21 10:29:53;;;;;;;2.30;2.10;;;;;;;14.42;60.19;96063.53;4989533;28;20022;-66
2022/09/21 10:32:22;;;;;;;4.90;2.25;;;;;;;14.59;58.66;96054.69;4991130;28;20023;-67
2022/09/21 10:35:09;;;;;;;4.53;2.15;;;;;;;14.60;57.40;96060.84;4990865;28;20022;-67
2022/09/21 10:37:52;;;;;;;5.25;2.22;;;;;;;14.60;58.71;96056.34;4988675;28;20018;-66
2022/09/21 10:40:20;;;;;;;4.00;1.88;;;;;;;14.74;58.11;96054.13;4989416;28;20023;-66
2022/09/21 10:42:49;;;;;;;5.88;2.45;;;;;;;14.84;59.39;96062.78;4990959;28;20046;-66
2022/09/21 10:45:16;;;;;;;3.00;2.28;;;;;;;14.99;56.58;96064.84;4991178;28;20027;-67
2022/09/21 10:47:54;;;;;;;3.13;2.30;;;;;;;15.37;55.50;96057.31;4989592;28;20084;-67
2022/09/21 10:50:27;;;;;;;1.95;1.80;;;;;;;15.15;55.73;96061.41;4985633;28;20460;-66
2022/09/21 10:53:10;;;;;;;2.58;2.30;;;;;;;15.29;56.01;96063.44;4988500;28;20034;-67
2022/09/21 10:55:42;;;;;;;4.45;2.00;;;;;;;15.69;52.92;96065.47;4988561;28;20080;-66
2022/09/21 10:58:09;;;;;;;1.95;1.80;;;;;;;15.92;53.69;96064.84;4989750;28;20112;-67
2022/09/21 11:00:50;;;;;;;2.40;2.13;;;;;;;15.93;54.07;96067.34;4989896;28;20061;-67
2022/09/21 11:03:40;;;;;;;4.55;2.65;;;;;;;16.11;53.90;96058.38;4988885;28;20146;-67
2022/09/21 11:06:34;;;;;;;3.55;2.00;;;;;;;16.53;51.50;96054.63;4989429;28;20093;-67
2022/09/21 11:09:07;;;;;;;3.65;2.17;;;;;;;16.48;51.82;96064.94;4988092;28;20022;-67
2022/09/21 11:11:49;;;;;;;6.47;2.20;;;;;;;16.58;52.62;96054.13;4987340;28;20453;-66
2022/09/21 11:14:34;;;;;;;7.32;2.45;;;;;;;16.79;51.74;96058.88;4989778;28;20026;-67
2022/09/21 11:17:04;;;;;;;4.60;2.47;;;;;;;17.00;50.76;96065.47;4988234;28;20257;-67
2022/09/21 11:19:43;;;;;;;4.00;2.28;;;;;;;17.08;51.50;96060.09;4989303;28;20029;-67
2022/09/21 11:22:38;;;;;;;5.35;2.10;;;;;;;17.63;49.60;96044.16;4989207;28;20026;-66
2022/09/21 11:25:30;;;;;;;3.45;2.10;;;;;;;17.56;49.25;96040.50;4988988;28;20042;-66
2022/09/21 11:28:12;;;;;;;3.58;2.17;;;;;;;17.91;47.81;96048.91;4987885;28;20486;-67
2022/09/21 11:31:18;;;;;;;5.95;2.40;;;;;;;17.66;49.00;96045.59;4987671;28;20022;-66
2022/09/21 11:33:49;;;;;;;2.35;2.15;;;;;;;17.50;49.50;96047.41;4952178;28;20041;-67
2022/09/21 11:36:29;;;;;;;5.40;2.13;;;;;;;17.31;50.09;96043.34;4988388;28;20459;-67
2022/09/21 11:39:33;;;;;;;3.85;2.33;;;;;;;17.42;49.98;96042.09;4984468;28;20042;-67
2022/09/21 11:42:35;;;;;;;3.72;2.17;;;;;;;17.48;49.04;96038.75;4940166;28;20498;-67
2022/09/21 11:45:06;;;;;;;3.92;2.20;;;;;;;17.35;49.90;96041.97;4989582;28;20038;-67
2022/09/21 11:48:02;;;;;;;6.32;2.22;;;;;;;17.54;48.59;96047.84;4984117;28;20052;-67
2022/09/21 11:50:53;;;;;;;4.93;2.33;;;;;;;17.58;48.86;96043.84;4979672;28;20115;-67
2022/09/21 11:53:34;;;;;;;3.40;2.05;;;;;;;17.59;48.56;96045.50;4989697;28;20030;-67
2022/09/21 11:56:16;;;;;;;2.95;2.25;;;;;;;17.50;50.58;96047.41;4990520;28;20391;-67
2022/09/21 11:59:14;;;;;;;2.95;2.15;;;;;;;17.45;48.92;96050.56;4989099;28;20052;-67
2022/09/21 12:01:54;;;;;;;6.57;2.47;;;;;;;17.49;49.16;96052.88;4980199;28;20026;-66